Barksdale Air Force Base Bossier City US
ICAO: KBAD
IATA: BAD
Category: Large
Scheduled Services: No

Elevation: 166 ft
TransAlt. 18000 ft.

Airport Communications:
SHREVEPORT APP/DEP:119.9
ATIS:37.58
GND:121.8
PMSV METRO:37.362
COMD POST:31.1
PTD:37.22
TWR:128.25

KBAD Zoom In..

If you have problems with the map follow the link
https://www.worldairports.se/pages/airport.php?
ICAO=KBAD

Runways:

(A) RW 15 length 11758 ft width 299 ft
ILS 108.90 / hdg 146

(B) RW 33 length 11758 ft width 299 ft
ILS 109.90 / hdg 326

Location; KBAD
Day. 27 / Time. 07.06 Zulu
* Altimeter: 30.01
* Temperature: 10° c. 50°f.
* Wind from: 330° Speed 05 kn.
Dewpoint: 10° c.
Visibility: 10 Statute Miles.
Clouds: Overcast 700 ft.

KBAD 270706Z AUTO 33005KT 10SM OVC007 10/10 A3001 RMK AO2 SLP165


Wind From 330°
Speed 05 kn.

 
 
jpsmedia worldairports.se 2020   terms of use